Nearby METAR Reports

 

KLBE - Latrobe/Westmorl, Pennsylvania, USA
Distance from station: SE 16mi, 26km
Updated: Wed, 21-Feb-2018 2:45pm EST
Overcast
Overcast
 Wind from NNW
Wind: NNW 9 mph , 15 km/h
Temperature: 59°F , 15°C
Dew Point: 54°F , 12°C
Humidity: 82%
Barometer: 30.34 inHg , 1027.4 hPa
Clouds: Overcast
Visibility: 10 miles , 16 km
Cloud details: Mostly cloudy 2500 ft
Overcast 3000 ft
2018/02/21 19:45 KLBE 211945Z 34008KT 10SM BKN025 OVC030 15/12 A3034
KAGC - Pittsburgh/Alleg, Pennsylvania, USA
Distance from station: WSW 18mi, 30km
Updated: Wed, 21-Feb-2018 3:19pm EST
Light rain, Overcast
Light rain, Overcast
 Wind from NNW
Wind: NNW 13 mph , 20 km/h, Gust: 28 mph , 44 km/h
Temperature: 54°F , 12°C
Dew Point: 48°F , 9°C
Humidity: 82%
Barometer: 30.34 inHg , 1027.4 hPa
Summary: Light rain
Clouds: Overcast
Visibility: 9 miles , 14 km
Cloud details: Mostly cloudy 800 ft
Overcast 1200 ft
2018/02/21 20:19 KAGC 212019Z 33011G24KT 9SM -RA BKN008 OVC012 12/09 A3034 RMK AO2 RAB13 CIG 005V010 P0000 T01170094
 
KBTP - Butler Co., Pennsylvania, USA
Distance from station: NW 29mi, 47km
Updated: Wed, 21-Feb-2018 2:56pm EST
Overcast
Overcast
 Wind from NNW
Wind: NNW 9 mph , 15 km/h
Temperature: 46°F , 8°C
Wind Chill: 41°F , 5°C
Dew Point: 45°F , 7°C
Humidity: 93%
Barometer: 30.37 inHg , 1028.4 hPa
Clouds: Overcast
Visibility: 10 miles , 16 km
Cloud details: Overcast 700 ft
2018/02/21 19:56 KBTP 211956Z AUTO 33008KT 10SM OVC007 08/07 A3037 RMK AO2 RAE12 SLP292 P0001 T00830067
KIDI - Indiana/Stewart, Pennsylvania, USA
Distance from station: ENE 29mi, 47km
Updated: Wed, 21-Feb-2018 3:35pm EST
Mist, Mostly cloudy
Mist, Mostly cloudy
 Wind from calm
Wind: Calm
Temperature: 55°F , 13°C
Dew Point: 55°F , 13°C
Humidity: 100%
Barometer: 30.37 inHg , 1028.4 hPa
Summary: Mist
Clouds: Mostly cloudy
Visibility: 2 miles , 3 km
Cloud details: Few Clouds 1200 ft
Partly cloudy 1800 ft
Mostly cloudy 3100 ft
2018/02/21 20:35 KIDI 212035Z AUTO 00000KT 2SM BR FEW012 SCT018 BKN031 13/13 A3037 RMK A01
 
KPIT - Pittsburgh, Pennsylvania, USA
Distance from station: W 36mi, 57km
Updated: Wed, 21-Feb-2018 2:51pm EST
Light rain, Overcast
Light rain, Overcast
 Wind from NNW
Wind: NNW 18 mph , 30 km/h
Temperature: 50°F , 10°C
Wind Chill: 44°F , 7°C
Dew Point: 46°F , 8°C
Humidity: 88%
Barometer: 30.36 inHg , 1028.1 hPa
Summary: Light rain
Clouds: Overcast
Visibility: 7 miles , 11 km
Cloud details: Overcast 600 ft
2018/02/21 19:51 KPIT 211951Z 34016KT 7SM -RA OVC006 10/08 A3036 RMK AO2 DZB14E26RAB26 SLP288 P0000 T01000083
KJST - Johnstown, Pennsylvania, USA
Distance from station: ESE 41mi, 66km
Updated: Wed, 21-Feb-2018 2:54pm EST
Mostly cloudy
Mostly cloudy
 Wind from WNW
Wind: WNW 17 mph , 28 km/h
Temperature: 61°F , 16°C
Dew Point: 54°F , 12°C
Humidity: 77%
Barometer: 30.30 inHg , 1026.1 hPa
Clouds: Mostly cloudy
Visibility: 10 miles , 16 km
Cloud details: Partly cloudy 1300 ft
Mostly cloudy 2300 ft
Mostly cloudy 11000 ft
2018/02/21 19:54 KJST 211954Z AUTO 30015KT 10SM SCT013 BKN023 BKN110 16/12 A3030 RMK AO2 RAE40 SLP257 P0000 T01560117
 
KAFJ - Washington, Pennsylvania, USA
Distance from station: WSW 42mi, 68km
Updated: Wed, 21-Feb-2018 3:25pm EST
Light rain, Overcast
Light rain, Overcast
 Wind from NW
Wind: NW 3 mph , 6 km/h
Temperature: 57°F , 14°C
Dew Point: 54°F , 12°C
Humidity: 88%
Barometer: 30.38 inHg , 1028.8 hPa
Summary: Light rain
Clouds: Overcast
Visibility: 9 miles , 14 km
Cloud details: Mostly cloudy 1200 ft
Overcast 1700 ft
2018/02/21 20:25 KAFJ 212025Z AUTO 32003KT 9SM -RA BKN012 OVC017 14/12 A3038 RMK AO2 P0001
KBVI - Beaver Falls Arp, Pennsylvania, USA
Distance from station: WNW 48mi, 77km
Updated: Wed, 21-Feb-2018 2:47pm EST
Rain, Overcast
Rain, Overcast
 Wind from NNW
Wind: NNW 8 mph , 13 km/h
Temperature: 41°F , 5°C
Wind Chill: 36°F , 2°C
Dew Point: 39°F , 4°C
Humidity: 93%
Barometer: 30.39 inHg , 1029.1 hPa
Summary: Rain
Clouds: Overcast
Visibility: 10 miles , 16 km
Cloud details: Overcast 300 ft
2018/02/21 19:47 KBVI 211947Z 34007KT 10SM RA OVC003 05/04 A3039